createdAt,value
2022-11-29T00:01:29.221Z,68.38
2022-11-29T00:03:55.983Z,77.18
2022-11-29T00:06:28.343Z,79.95
2022-11-29T00:08:56.803Z,71.10
2022-11-29T00:11:49.183Z,69.60
2022-11-29T00:14:18.075Z,75.97
2022-11-29T00:16:44.696Z,67.72
2022-11-29T00:19:13.280Z,58.90
2022-11-29T00:21:39.718Z,77.05
2022-11-29T00:24:06.871Z,73.13
2022-11-29T00:26:33.375Z,70.45
2022-11-29T00:28:59.812Z,77.50
2022-11-29T00:31:31.265Z,112.93
2022-11-29T00:33:59.005Z,84.07
2022-11-29T00:36:26.145Z,87.23
2022-11-29T00:38:52.898Z,77.35
2022-11-29T00:41:19.964Z,69.97
2022-11-29T00:43:46.512Z,69.60
2022-11-29T00:46:13.023Z,69.15
2022-11-29T00:48:39.561Z,66.53
2022-11-29T00:51:06.760Z,61.35
2022-11-29T00:53:34.560Z,65.47
2022-11-29T00:56:02.347Z,72.32
2022-11-29T00:58:29.323Z,58.28
2022-11-29T01:00:56.384Z,66.60
2022-11-29T01:03:23.467Z,81.15
2022-11-29T01:05:50.202Z,53.92
2022-11-29T01:08:17.315Z,77.07
2022-11-29T01:10:44.197Z,59.83
2022-11-29T01:13:11.015Z,55.23
2022-11-29T01:15:38.264Z,58.30
2022-11-29T01:18:05.007Z,59.95
2022-11-29T01:20:31.402Z,52.13
2022-11-29T01:22:58.599Z,63.65
2022-11-29T01:25:25.260Z,65.27
2022-11-29T01:27:51.701Z,56.53
2022-11-29T01:30:18.122Z,61.38
2022-11-29T01:32:44.555Z,60.10
2022-11-29T01:35:10.960Z,56.15
2022-11-29T01:37:37.410Z,52.20
2022-11-29T01:40:04.374Z,52.05
2022-11-29T01:42:30.833Z,53.78
2022-11-29T01:45:19.957Z,50.05
2022-11-29T01:47:48.019Z,53.90
2022-11-29T01:50:14.729Z,50.53
2022-11-29T01:52:41.884Z,54.28
2022-11-29T01:55:10.012Z,47.95
2022-11-29T01:57:39.805Z,45.53
2022-11-29T02:00:13.007Z,41.65
2022-11-29T02:02:47.037Z,41.53
2022-11-29T02:05:16.782Z,78.38
2022-11-29T02:07:45.763Z,39.25
2022-11-29T02:10:12.515Z,40.72
2022-11-29T02:12:44.542Z,35.78
2022-11-29T02:15:38.354Z,68.23
2022-11-29T02:18:28.324Z,39.15
2022-11-29T02:21:08.784Z,39.10
2022-11-29T02:24:02.272Z,48.00
2022-11-29T02:26:53.480Z,37.30
2022-11-29T02:30:01.873Z,52.70
2022-11-29T02:32:46.555Z,41.58
2022-11-29T02:35:25.191Z,44.67
2022-11-29T02:38:06.612Z,48.22
2022-11-29T02:40:42.085Z,51.47
2022-11-29T02:43:53.319Z,43.00
2022-11-29T02:46:25.760Z,45.47
2022-11-29T02:49:02.998Z,48.42
2022-11-29T02:52:01.876Z,47.75
2022-11-29T02:54:50.228Z,50.35
2022-11-29T02:57:24.709Z,51.27
2022-11-29T03:00:03.827Z,55.30
2022-11-29T03:02:42.734Z,56.03
2022-11-29T03:05:49.757Z,51.47
2022-11-29T03:08:40.764Z,49.63
2022-11-29T03:11:32.183Z,51.23
2022-11-29T03:14:10.798Z,53.38
2022-11-29T03:16:51.280Z,57.15
2022-11-29T03:19:23.812Z,51.92
2022-11-29T03:22:02.135Z,52.45
2022-11-29T03:25:14.756Z,51.63
2022-11-29T03:27:47.553Z,47.40
2022-11-29T03:30:17.328Z,62.75
2022-11-29T03:33:03.467Z,55.60
2022-11-29T03:35:40.870Z,56.90
2022-11-29T03:38:25.920Z,50.93
2022-11-29T03:41:13.733Z,52.03
2022-11-29T03:44:12.779Z,54.88
2022-11-29T03:47:00.939Z,51.85
2022-11-29T03:49:56.480Z,46.90
2022-11-29T03:52:33.935Z,51.83
2022-11-29T03:55:12.487Z,62.83
2022-11-29T03:58:13.145Z,53.33
2022-11-29T04:01:20.493Z,49.97
2022-11-29T04:04:23.780Z,55.63
2022-11-29T04:07:11.497Z,51.37
2022-11-29T04:10:09.267Z,59.75
2022-11-29T04:13:01.674Z,62.53
2022-11-29T04:16:02.923Z,57.03
2022-11-29T04:19:09.503Z,47.47
2022-11-29T04:21:45.003Z,69.80
2022-11-29T04:24:11.482Z,50.05
2022-11-29T04:27:09.025Z,58.38
2022-11-29T04:30:18.533Z,66.32
2022-11-29T04:33:25.887Z,61.67
2022-11-29T04:36:07.690Z,49.40
2022-11-29T04:38:49.448Z,54.13
2022-11-29T04:41:47.104Z,59.90
2022-11-29T04:44:25.191Z,67.70
2022-11-29T04:47:21.973Z,74.90
2022-11-29T04:49:54.035Z,60.27
2022-11-29T04:52:52.309Z,70.70
2022-11-29T04:55:38.172Z,83.03
2022-11-29T04:58:07.279Z,49.47
2022-11-29T05:00:45.075Z,50.75
2022-11-29T05:03:23.340Z,43.70
2022-11-29T05:06:03.164Z,52.42
2022-11-29T05:08:41.484Z,75.43
2022-11-29T05:11:45.945Z,47.92
2022-11-29T05:14:49.970Z,48.45
2022-11-29T05:17:26.572Z,50.13
2022-11-29T05:20:23.100Z,51.13
2022-11-29T05:22:52.222Z,49.08
2022-11-29T05:25:35.278Z,44.35
2022-11-29T05:28:15.172Z,47.28
2022-11-29T05:31:07.387Z,67.03
2022-11-29T05:33:45.685Z,57.45
2022-11-29T05:36:21.893Z,69.80
2022-11-29T05:39:11.377Z,44.50
2022-11-29T05:42:06.312Z,58.78
2022-11-29T05:44:47.651Z,58.33
2022-11-29T05:47:46.714Z,70.53
2022-11-29T05:50:26.584Z,56.30
2022-11-29T05:53:29.468Z,47.25
2022-11-29T05:56:14.115Z,42.47
2022-11-29T05:58:49.695Z,60.93
2022-11-29T06:01:26.083Z,41.88
2022-11-29T06:04:17.760Z,39.30
2022-11-29T06:07:12.312Z,42.65
2022-11-29T06:09:48.180Z,71.43
2022-11-29T06:12:23.514Z,49.90
2022-11-29T06:15:01.837Z,42.95
2022-11-29T06:17:48.687Z,48.45
2022-11-29T06:20:24.115Z,46.42
2022-11-29T06:23:18.577Z,69.10
2022-11-29T06:26:29.117Z,49.67
2022-11-29T06:29:14.388Z,43.85
2022-11-29T06:31:46.359Z,45.53
2022-11-29T06:34:36.832Z,67.35
2022-11-29T06:37:19.846Z,51.35
2022-11-29T06:39:46.532Z,49.87
2022-11-29T06:42:12.949Z,52.72
2022-11-29T06:44:39.876Z,54.17
2022-11-29T06:47:20.197Z,93.90
2022-11-29T06:49:50.994Z,91.15
2022-11-29T06:52:28.504Z,79.43
2022-11-29T06:54:57.764Z,67.97
2022-11-29T06:57:33.276Z,68.22
2022-11-29T07:00:13.020Z,69.70
2022-11-29T07:02:54.470Z,44.78
2022-11-29T07:05:25.942Z,56.47
2022-11-29T07:07:55.656Z,58.65
2022-11-29T07:10:23.641Z,47.50
2022-11-29T07:12:51.119Z,44.40
2022-11-29T07:15:20.666Z,44.85
2022-11-29T07:18:16.300Z,54.07
2022-11-29T07:21:08.688Z,51.53
2022-11-29T07:23:45.416Z,61.92
2022-11-29T07:26:59.271Z,36.40
2022-11-29T07:30:05.068Z,50.05
2022-11-29T07:32:47.290Z,43.60
2022-11-29T07:35:24.527Z,43.42
2022-11-29T07:38:10.329Z,39.80
2022-11-29T07:41:02.954Z,43.53
2022-11-29T07:44:11.025Z,43.63
2022-11-29T07:46:37.514Z,45.77
2022-11-29T07:49:04.061Z,52.25
2022-11-29T07:51:31.366Z,34.70
2022-11-29T07:53:57.872Z,34.97
2022-11-29T07:56:24.323Z,39.65
2022-11-29T07:58:50.793Z,36.53
2022-11-29T08:01:17.320Z,49.47
2022-11-29T08:03:43.897Z,43.63
2022-11-29T08:06:10.516Z,48.63
2022-11-29T08:08:43.565Z,37.28
2022-11-29T08:11:12.533Z,32.50
2022-11-29T08:13:38.997Z,38.67
2022-11-29T08:16:05.606Z,32.90
2022-11-29T08:18:32.060Z,27.67
2022-11-29T08:20:58.486Z,35.53
2022-11-29T08:23:24.957Z,30.93
2022-11-29T08:25:58.245Z,32.67
2022-11-29T08:28:24.695Z,31.50
2022-11-29T08:30:51.269Z,24.17
2022-11-29T08:33:17.740Z,28.98
2022-11-29T08:35:44.188Z,27.83
2022-11-29T08:38:10.702Z,28.17
2022-11-29T08:40:37.107Z,29.30
2022-11-29T08:43:03.607Z,26.77
2022-11-29T08:45:30.110Z,26.25
2022-11-29T08:47:56.610Z,24.60
2022-11-29T08:50:23.335Z,32.78
2022-11-29T08:53:08.253Z,31.67
2022-11-29T08:55:38.844Z,30.77
2022-11-29T08:58:07.830Z,24.88
2022-11-29T09:00:34.775Z,29.67
2022-11-29T09:03:24.729Z,22.65
2022-11-29T09:05:51.827Z,25.23
2022-11-29T09:08:18.961Z,30.75
2022-11-29T09:10:46.084Z,28.33
2022-11-29T09:13:12.603Z,22.10
2022-11-29T09:15:41.917Z,23.88
2022-11-29T09:18:08.408Z,29.98
2022-11-29T09:20:35.092Z,35.70
2022-11-29T09:23:01.764Z,25.90
2022-11-29T09:25:29.177Z,18.83
2022-11-29T09:27:58.429Z,22.50
2022-11-29T09:30:25.026Z,16.20
2022-11-29T09:32:51.563Z,18.75
2022-11-29T09:35:18.123Z,19.17
2022-11-29T09:37:44.625Z,22.10
2022-11-29T09:40:27.409Z,19.23
2022-11-29T09:43:19.165Z,18.95
2022-11-29T09:45:49.920Z,21.30
2022-11-29T09:48:36.936Z,19.17
2022-11-29T09:51:25.611Z,27.03
2022-11-29T09:54:18.385Z,20.08
2022-11-29T09:56:50.043Z,23.45
2022-11-29T09:59:32.526Z,19.02
2022-11-29T10:02:21.457Z,25.33
2022-11-29T10:04:52.192Z,26.00
2022-11-29T10:07:29.074Z,23.10
2022-11-29T10:10:01.815Z,21.40
2022-11-29T10:12:52.391Z,23.58
2022-11-29T10:15:23.907Z,26.90
2022-11-29T10:18:19.229Z,17.80
2022-11-29T10:20:49.651Z,22.48
2022-11-29T10:23:24.274Z,24.50
2022-11-29T10:25:53.544Z,21.13
2022-11-29T10:28:24.024Z,23.92
2022-11-29T10:30:53.599Z,23.33
2022-11-29T10:33:32.455Z,29.17
2022-11-29T10:36:02.431Z,22.55
2022-11-29T10:38:31.427Z,20.90
2022-11-29T10:41:06.932Z,22.63
2022-11-29T10:43:34.002Z,20.07
2022-11-29T10:46:02.413Z,20.25
2022-11-29T10:48:33.628Z,22.98
2022-11-29T10:51:01.490Z,19.80
2022-11-29T10:53:32.197Z,23.27
2022-11-29T10:56:13.968Z,21.17
2022-11-29T10:59:03.227Z,24.10
2022-11-29T11:01:37.505Z,22.65
2022-11-29T11:04:08.463Z,22.60
2022-11-29T11:06:48.361Z,23.00
2022-11-29T11:09:33.904Z,28.17
2022-11-29T11:12:05.700Z,25.50
2022-11-29T11:14:37.700Z,23.70
2022-11-29T11:17:22.283Z,24.23
2022-11-29T11:20:20.771Z,25.30
2022-11-29T11:23:02.578Z,30.70
2022-11-29T11:25:32.222Z,34.88
2022-11-29T11:28:21.429Z,25.48
2022-11-29T11:30:54.690Z,32.05
2022-11-29T11:33:24.426Z,24.88
2022-11-29T11:36:09.688Z,27.30
2022-11-29T11:38:39.502Z,24.40
2022-11-29T11:41:11.774Z,27.75
2022-11-29T11:43:39.563Z,24.65
2022-11-29T11:46:08.078Z,27.88
2022-11-29T11:48:35.453Z,28.33
2022-11-29T11:51:02.010Z,29.50
2022-11-29T11:53:35.718Z,28.75
2022-11-29T11:56:12.541Z,30.10
2022-11-29T11:58:44.406Z,22.92
2022-11-29T12:01:13.727Z,23.97
2022-11-29T12:03:49.365Z,29.45
2022-11-29T12:06:27.170Z,24.58
2022-11-29T12:08:59.294Z,28.85
2022-11-29T12:11:27.134Z,27.35
2022-11-29T12:13:57.178Z,25.57
2022-11-29T12:16:33.073Z,28.02
2022-11-29T12:19:06.474Z,32.20
2022-11-29T12:21:40.140Z,37.15
2022-11-29T12:24:28.988Z,33.92
2022-11-29T12:27:00.675Z,30.50
2022-11-29T12:29:32.916Z,26.02
2022-11-29T12:32:11.913Z,30.05
2022-11-29T12:35:09.042Z,28.02
2022-11-29T12:38:00.049Z,24.40
2022-11-29T12:41:03.759Z,30.90
2022-11-29T12:43:49.345Z,27.02
2022-11-29T12:46:27.688Z,30.85
2022-11-29T12:49:18.258Z,30.98
2022-11-29T12:52:15.840Z,28.58
2022-11-29T12:55:30.723Z,31.50
2022-11-29T12:57:59.836Z,24.23
2022-11-29T13:00:32.345Z,32.17
2022-11-29T13:03:11.455Z,29.70
2022-11-29T13:05:53.243Z,30.58
2022-11-29T13:08:30.094Z,27.37
2022-11-29T13:11:20.959Z,29.33
2022-11-29T13:14:03.793Z,29.98
2022-11-29T13:16:56.763Z,24.73
2022-11-29T13:19:45.538Z,31.48
2022-11-29T13:22:21.208Z,21.40
2022-11-29T13:24:53.450Z,28.45
2022-11-29T13:27:27.307Z,29.80
2022-11-29T13:29:54.503Z,32.10
2022-11-29T13:32:39.955Z,34.28
2022-11-29T13:35:15.305Z,29.90
2022-11-29T13:37:55.652Z,32.30
2022-11-29T13:40:52.100Z,35.88
2022-11-29T13:43:39.352Z,31.48
2022-11-29T13:46:46.691Z,35.20
2022-11-29T13:49:22.956Z,30.90
2022-11-29T13:52:04.558Z,35.75
2022-11-29T13:54:33.541Z,28.23
2022-11-29T13:57:06.782Z,27.25
2022-11-29T13:59:36.090Z,29.05
2022-11-29T14:02:03.232Z,26.50
2022-11-29T14:04:32.613Z,31.15
2022-11-29T14:07:10.464Z,33.72
2022-11-29T14:09:44.970Z,36.42
2022-11-29T14:12:38.282Z,32.55
2022-11-29T14:15:19.497Z,36.77
2022-11-29T14:17:55.894Z,32.58
2022-11-29T14:20:22.288Z,37.90
2022-11-29T14:23:07.383Z,31.98
2022-11-29T14:25:53.297Z,36.88
2022-11-29T14:28:22.845Z,28.60
2022-11-29T14:30:54.942Z,30.63
2022-11-29T14:34:03.548Z,46.10
2022-11-29T14:36:30.012Z,26.08
2022-11-29T14:39:15.444Z,34.88
2022-11-29T14:42:14.325Z,28.77
2022-11-29T14:44:47.154Z,35.05
2022-11-29T14:47:34.610Z,30.35
2022-11-29T14:50:06.665Z,25.30
2022-11-29T14:52:49.890Z,25.77
2022-11-29T14:55:16.394Z,26.53
2022-11-29T14:58:01.229Z,27.35
2022-11-29T15:00:30.519Z,25.30
2022-11-29T15:03:05.291Z,27.60
2022-11-29T15:05:36.892Z,24.60
2022-11-29T15:08:37.637Z,19.90
2022-11-29T15:11:10.136Z,25.20
2022-11-29T15:13:46.794Z,20.45
2022-11-29T15:16:25.006Z,21.65
2022-11-29T15:19:29.849Z,25.15
2022-11-29T15:22:15.304Z,27.70
2022-11-29T15:24:52.129Z,28.70
2022-11-29T15:27:19.321Z,30.10
2022-11-29T15:29:49.091Z,25.95
2022-11-29T15:32:22.579Z,25.45
2022-11-29T15:34:51.445Z,31.37
2022-11-29T15:37:38.848Z,28.80
2022-11-29T15:40:19.060Z,28.90
2022-11-29T15:42:49.556Z,25.92
2022-11-29T15:45:28.307Z,31.73
2022-11-29T15:47:55.576Z,29.23
2022-11-29T15:50:33.465Z,28.45
2022-11-29T15:53:03.823Z,30.20
2022-11-29T15:55:30.993Z,27.67
2022-11-29T15:58:03.882Z,25.33
2022-11-29T16:00:33.833Z,25.90
2022-11-29T16:03:02.467Z,29.00
2022-11-29T16:05:35.653Z,25.60
2022-11-29T16:08:06.998Z,29.55
2022-11-29T16:10:43.567Z,31.27
2022-11-29T16:13:25.348Z,24.83
2022-11-29T16:16:04.568Z,28.48
2022-11-29T16:18:31.394Z,28.33
2022-11-29T16:21:02.576Z,32.50
2022-11-29T16:23:34.020Z,28.40
2022-11-29T16:26:02.179Z,25.50
2022-11-29T16:28:36.461Z,29.90
2022-11-29T16:31:04.860Z,37.20
2022-11-29T16:33:31.851Z,25.95
2022-11-29T16:36:35.009Z,34.60
2022-11-29T16:39:20.152Z,28.43
2022-11-29T16:42:25.919Z,36.47
2022-11-29T16:45:01.870Z,32.33
2022-11-29T16:47:46.558Z,29.58
2022-11-29T16:50:21.583Z,27.67
2022-11-29T16:52:53.439Z,29.77
2022-11-29T16:55:23.002Z,25.95
2022-11-29T16:57:49.645Z,36.72
2022-11-29T17:00:31.982Z,36.22
2022-11-29T17:02:59.314Z,41.53
2022-11-29T17:05:26.326Z,32.83
2022-11-29T17:07:53.138Z,31.30
2022-11-29T17:10:25.180Z,46.20
2022-11-29T17:12:52.091Z,40.35
2022-11-29T17:15:18.611Z,60.03
2022-11-29T17:17:45.156Z,36.27
2022-11-29T17:20:13.378Z,71.40
2022-11-29T17:22:40.112Z,50.47
2022-11-29T17:25:07.248Z,51.85
2022-11-29T17:27:33.724Z,64.38
2022-11-29T17:30:00.186Z,47.07
2022-11-29T17:32:27.135Z,43.10
2022-11-29T17:34:53.793Z,31.25
2022-11-29T17:37:20.264Z,59.45
2022-11-29T17:39:49.064Z,39.35
2022-11-29T17:42:15.654Z,34.40
2022-11-29T17:44:42.288Z,35.88
2022-11-29T17:47:08.691Z,50.55
2022-11-29T17:49:35.169Z,36.58
2022-11-29T17:52:01.717Z,63.47
2022-11-29T17:54:28.268Z,33.97
2022-11-29T17:56:55.126Z,28.85
2022-11-29T17:59:21.531Z,57.70
2022-11-29T18:01:48.195Z,62.63
2022-11-29T18:04:15.173Z,54.80
2022-11-29T18:06:41.943Z,46.97
2022-11-29T18:09:10.530Z,80.07
2022-11-29T18:11:48.159Z,58.00
2022-11-29T18:14:17.992Z,59.80
2022-11-29T18:16:47.417Z,35.63
2022-11-29T18:19:17.563Z,49.70
2022-11-29T18:21:44.715Z,72.18
2022-11-29T18:24:11.559Z,81.13
2022-11-29T18:26:38.725Z,68.70
2022-11-29T18:29:06.478Z,63.65
2022-11-29T18:31:35.323Z,89.20
2022-11-29T18:34:06.944Z,50.75
2022-11-29T18:36:35.920Z,91.88
2022-11-29T18:39:11.619Z,54.10
2022-11-29T18:41:38.332Z,27.65
2022-11-29T18:44:07.995Z,40.43
2022-11-29T18:46:37.292Z,24.55
2022-11-29T18:49:06.540Z,45.65
2022-11-29T18:51:34.210Z,46.10
2022-11-29T18:54:01.492Z,26.88
2022-11-29T18:56:30.592Z,24.37
2022-11-29T18:58:59.621Z,36.67
2022-11-29T19:01:32.218Z,36.10
2022-11-29T19:04:00.465Z,33.95
2022-11-29T19:06:35.456Z,29.58
2022-11-29T19:09:06.718Z,25.87
2022-11-29T19:11:34.355Z,26.10
2022-11-29T19:14:03.938Z,28.20
2022-11-29T19:16:32.587Z,20.95
2022-11-29T19:19:00.579Z,21.23
2022-11-29T19:21:28.759Z,24.20
2022-11-29T19:23:57.765Z,36.25
2022-11-29T19:26:26.686Z,25.58
2022-11-29T19:28:54.056Z,23.25
2022-11-29T19:31:26.969Z,29.40
2022-11-29T19:33:54.500Z,33.00
2022-11-29T19:36:26.321Z,36.03
2022-11-29T19:38:54.093Z,19.45
2022-11-29T19:41:23.033Z,40.75
2022-11-29T19:43:50.098Z,16.50
2022-11-29T19:46:20.012Z,17.90
2022-11-29T19:48:47.659Z,16.65
2022-11-29T19:51:17.511Z,13.85
2022-11-29T19:53:45.066Z,18.25
2022-11-29T19:56:14.233Z,13.13
2022-11-29T19:58:40.997Z,17.43
2022-11-29T20:01:10.551Z,14.10
2022-11-29T20:03:37.560Z,16.48
2022-11-29T20:06:04.503Z,17.63
2022-11-29T20:08:31.599Z,17.63
2022-11-29T20:11:13.664Z,17.07
2022-11-29T20:13:41.898Z,13.15
2022-11-29T20:16:14.570Z,13.70
2022-11-29T20:18:47.259Z,16.73
2022-11-29T20:21:20.519Z,15.63
2022-11-29T20:23:47.231Z,12.60
2022-11-29T20:26:19.976Z,12.38
2022-11-29T20:28:47.400Z,12.23
2022-11-29T20:31:21.383Z,13.82
2022-11-29T20:33:48.962Z,12.35
2022-11-29T20:36:27.563Z,12.57
2022-11-29T20:39:23.948Z,12.05
2022-11-29T20:42:05.834Z,12.40
2022-11-29T20:44:54.028Z,11.05
2022-11-29T20:47:24.186Z,12.45
2022-11-29T20:49:51.053Z,12.07
2022-11-29T20:52:45.428Z,12.68
2022-11-29T20:55:12.018Z,12.38
2022-11-29T20:57:38.475Z,11.55
2022-11-29T21:00:11.240Z,13.30
2022-11-29T21:02:38.498Z,12.50
2022-11-29T21:05:05.839Z,17.70
2022-11-29T21:07:32.349Z,13.15
2022-11-29T21:10:01.375Z,12.70
2022-11-29T21:12:29.379Z,12.27
2022-11-29T21:14:56.065Z,13.27
2022-11-29T21:17:22.886Z,13.55
2022-11-29T21:19:49.663Z,12.02
2022-11-29T21:22:37.516Z,12.98
2022-11-29T21:25:13.978Z,13.77
2022-11-29T21:27:40.770Z,14.67
2022-11-29T21:30:18.415Z,15.00
2022-11-29T21:32:45.852Z,12.20
2022-11-29T21:35:13.185Z,15.35
2022-11-29T21:37:39.972Z,13.85
2022-11-29T21:40:07.651Z,14.03
2022-11-29T21:42:34.071Z,14.27
2022-11-29T21:45:00.469Z,14.38
2022-11-29T21:47:26.924Z,13.45
2022-11-29T21:49:54.626Z,13.02
2022-11-29T21:52:22.974Z,13.70
2022-11-29T21:54:49.918Z,15.38
2022-11-29T21:57:16.379Z,13.80
2022-11-29T21:59:42.851Z,15.02
2022-11-29T22:02:09.349Z,15.68
2022-11-29T22:04:35.882Z,12.93
2022-11-29T22:07:02.352Z,12.93
2022-11-29T22:09:28.865Z,13.23
2022-11-29T22:11:55.308Z,15.00
2022-11-29T22:14:21.741Z,14.13
2022-11-29T22:16:51.140Z,13.25
2022-11-29T22:19:20.188Z,13.17
2022-11-29T22:21:49.634Z,14.32
2022-11-29T22:24:18.639Z,13.90
2022-11-29T22:26:46.214Z,14.40
2022-11-29T22:29:14.206Z,12.88
2022-11-29T22:31:42.296Z,14.47
2022-11-29T22:34:08.998Z,14.15
2022-11-29T22:36:36.322Z,14.00
2022-11-29T22:39:03.852Z,13.25
2022-11-29T22:41:31.684Z,13.52
2022-11-29T22:43:58.174Z,13.30
2022-11-29T22:46:26.733Z,15.45
2022-11-29T22:48:55.583Z,13.73
2022-11-29T22:51:24.686Z,14.00
2022-11-29T22:53:53.942Z,14.43
2022-11-29T22:56:21.766Z,12.33
2022-11-29T22:58:48.602Z,12.05
2022-11-29T23:01:18.226Z,13.85
2022-11-29T23:03:48.351Z,12.98
2022-11-29T23:06:18.645Z,14.88
2022-11-29T23:08:47.136Z,13.07
2022-11-29T23:11:16.704Z,15.18
2022-11-29T23:13:44.237Z,11.27
2022-11-29T23:16:16.179Z,12.13
2022-11-29T23:18:45.591Z,13.73
2022-11-29T23:21:17.783Z,18.87
2022-11-29T23:23:44.479Z,14.43
2022-11-29T23:26:22.564Z,17.20
2022-11-29T23:28:49.236Z,13.15
2022-11-29T23:31:17.601Z,15.07
2022-11-29T23:33:44.494Z,13.93
2022-11-29T23:36:12.210Z,16.58
2022-11-29T23:38:38.924Z,15.45
2022-11-29T23:41:06.775Z,13.57
2022-11-29T23:43:35.833Z,14.32
2022-11-29T23:46:14.452Z,15.23
2022-11-29T23:48:41.643Z,13.68
2022-11-29T23:51:08.717Z,13.43
2022-11-29T23:53:35.177Z,17.60
2022-11-29T23:56:04.150Z,14.05
2022-11-29T23:58:32.136Z,12.17
